East Coast — XJBP — position and weather

sailwx.info

Track history (hours):
 
Tides and Currents Weather Stations Pressure Air Temp Water Temp Dewpoint Dewpoint Depression Visibility Wind Speed Wind Dir Waves Ship Positions

East Coast

Last reported at 2018-Apr-22 11:29 UTC. Time now 2018-Apr-25 21:55 UTC.
Position N 42°57' W 069°32'.

Length 181 m; draft 7.5 m.

Type: Ship (hazmat cat A). MMSI: 316028326.

Date/timePositionNaut miles runAvg speedWind from/ knotsBaromVisibWave heightAir tempDewpointWater temp
2018-Apr-22 11:29N 42°57' W 069°32'713.5
2018-Apr-22 11:00N 42°54' W 069°40'713.6
2018-Apr-22 10:30N 42°51' W 069°49'713.6
2018-Apr-22 10:00N 42°47' W 069°57'713.7
2018-Apr-22 09:30N 42°44' W 070°05'713.6
2018-Apr-22 09:00N 42°41' W 070°13'612.5
2018-Apr-22 08:30N 42°38' W 070°21'4 9.0
2018-Apr-22 08:00N 42°36' W 070°26'4 8.9
2018-Apr-22 07:30N 42°34' W 070°31'4 9.1
2018-Apr-22 07:00N 42°31' W 070°36'4 8.9
2018-Apr-22 06:30N 42°29' W 070°41'4 9.1
2018-Apr-22 06:00N 42°26' W 070°46'5 9.2
2018-Apr-22 05:30N 42°23' W 070°51'510.5
2018-Apr-22 05:00N 42°20' W 070°57'5 9.7
2018-Apr-22 04:31N 42°22' W 071°03'1 0.1
2018-Apr-21 16:26N 42°23' W 071°01'0 0.0
2018-Apr-21 15:32N 42°23' W 071°01'0 0.0
2018-Apr-21 15:14N 42°23' W 071°01'0 0.0
2018-Apr-21 14:50N 42°23' W 071°01'0 0.0
2018-Apr-21 14:17N 42°23' W 071°01'0 0.0
2018-Apr-21 13:59N 42°23' W 071°01'0 0.0
2018-Apr-21 13:29N 42°23' W 071°01'0 0.0
2018-Apr-21 12:56N 42°23' W 071°01'0 0.0
2018-Apr-21 12:29N 42°23' W 071°01'0 0.0
2018-Apr-21 11:59N 42°23' W 071°01'1 1.7
2018-Apr-21 11:31N 42°24' W 071°01'0 0.0
2018-Apr-20 13:28N 42°24' W 071°01'0 0.0
2018-Apr-20 12:58N 42°24' W 071°01'0 0.0
2018-Apr-20 12:22N 42°24' W 071°01'0 0.3
2018-Apr-20 12:00N 42°23' W 071°01'1 2.2
2018-Apr-20 11:30N 42°23' W 071°03'2 4.8
2018-Apr-20 10:59N 42°21' W 071°01'4 9.2
2018-Apr-20 10:30N 42°22' W 070°55'612.0
2018-Apr-20 10:00N 42°24' W 070°48'3 6.5
2018-Apr-20 09:30N 42°26' W 070°44'0 0.9
2018-Apr-20 09:00N 42°25' W 070°45'0 0.8
2018-Apr-20 08:30N 42°25' W 070°45'0 0.9
2018-Apr-20 08:00N 42°25' W 070°46'0 0.7
2018-Apr-20 07:30N 42°26' W 070°45'5 9.7
2018-Apr-20 07:00N 42°29' W 070°40'510.1
2018-Apr-20 06:30N 42°32' W 070°35'510.0
2018-Apr-20 06:00N 42°34' W 070°29'510.0
2018-Apr-20 05:30N 42°37' W 070°23'612.5
2018-Apr-20 05:00N 42°40' W 070°15'714.7
2018-Apr-20 04:30N 42°43' W 070°07'714.3
2018-Apr-20 04:00N 42°45' W 069°57'1 1.4
2018-Apr-20 03:00N 42°45' W 069°55'0 0.7
2018-Apr-20 02:28N 42°46' W 069°56'0 0.6
2018-Apr-20 02:01N 42°46' W 069°56'0 0.6
2018-Apr-20 01:26N 42°46' W 069°56'0 0.4
2018-Apr-20 00:58N 42°46' W 069°56'0 0.4
2018-Apr-20 00:29N 42°46' W 069°57'0 0.4
2018-Apr-20 00:00N 42°46' W 069°57'0 0.4
2018-Apr-19 23:30N 42°46' W 069°57'0 0.5
2018-Apr-19 23:00N 42°46' W 069°58'0 0.4
2018-Apr-19 22:29N 42°46' W 069°58'1 1.3
2018-Apr-19 22:00N 42°46' W 069°59'  
Track history (hours):
 
Tides and Currents Weather Stations Pressure Air Temp Water Temp Dewpoint Dewpoint Depression Visibility Wind Speed Wind Dir Waves Ship Positions

East Coast

Last reported at 2018-Apr-22 11:29 UTC. Time now 2018-Apr-25 21:55 UTC.
Position N 42°57' W 069°32'.

Length 181 m; draft 7.5 m.

Type: Ship (hazmat cat A). MMSI: 316028326.

Date/timePositionNaut miles runAvg speedWind from/ knotsBaromVisibWave heightAir tempDewpointWater temp
2018-Apr-22 11:29N 42°57' W 069°32'713.5
2018-Apr-22 11:00N 42°54' W 069°40'713.6
2018-Apr-22 10:30N 42°51' W 069°49'713.6
2018-Apr-22 10:00N 42°47' W 069°57'713.7
2018-Apr-22 09:30N 42°44' W 070°05'713.6
2018-Apr-22 09:00N 42°41' W 070°13'612.5
2018-Apr-22 08:30N 42°38' W 070°21'4 9.0
2018-Apr-22 08:00N 42°36' W 070°26'4 8.9
2018-Apr-22 07:30N 42°34' W 070°31'4 9.1
2018-Apr-22 07:00N 42°31' W 070°36'4 8.9
2018-Apr-22 06:30N 42°29' W 070°41'4 9.1
2018-Apr-22 06:00N 42°26' W 070°46'5 9.2
2018-Apr-22 05:30N 42°23' W 070°51'510.5
2018-Apr-22 05:00N 42°20' W 070°57'5 9.7
2018-Apr-22 04:31N 42°22' W 071°03'1 0.1
2018-Apr-21 16:26N 42°23' W 071°01'0 0.0
2018-Apr-21 15:32N 42°23' W 071°01'0 0.0
2018-Apr-21 15:14N 42°23' W 071°01'0 0.0
2018-Apr-21 14:50N 42°23' W 071°01'0 0.0
2018-Apr-21 14:17N 42°23' W 071°01'0 0.0
2018-Apr-21 13:59N 42°23' W 071°01'0 0.0
2018-Apr-21 13:29N 42°23' W 071°01'0 0.0
2018-Apr-21 12:56N 42°23' W 071°01'0 0.0
2018-Apr-21 12:29N 42°23' W 071°01'0 0.0
2018-Apr-21 11:59N 42°23' W 071°01'1 1.7
2018-Apr-21 11:31N 42°24' W 071°01'0 0.0
2018-Apr-20 13:28N 42°24' W 071°01'0 0.0
2018-Apr-20 12:58N 42°24' W 071°01'0 0.0
2018-Apr-20 12:22N 42°24' W 071°01'0 0.3
2018-Apr-20 12:00N 42°23' W 071°01'1 2.2
2018-Apr-20 11:30N 42°23' W 071°03'2 4.8
2018-Apr-20 10:59N 42°21' W 071°01'4 9.2
2018-Apr-20 10:30N 42°22' W 070°55'612.0
2018-Apr-20 10:00N 42°24' W 070°48'3 6.5
2018-Apr-20 09:30N 42°26' W 070°44'0 0.9
2018-Apr-20 09:00N 42°25' W 070°45'0 0.8
2018-Apr-20 08:30N 42°25' W 070°45'0 0.9
2018-Apr-20 08:00N 42°25' W 070°46'0 0.7
2018-Apr-20 07:30N 42°26' W 070°45'5 9.7
2018-Apr-20 07:00N 42°29' W 070°40'510.1
2018-Apr-20 06:30N 42°32' W 070°35'510.0
2018-Apr-20 06:00N 42°34' W 070°29'510.0
2018-Apr-20 05:30N 42°37' W 070°23'612.5
2018-Apr-20 05:00N 42°40' W 070°15'714.7
2018-Apr-20 04:30N 42°43' W 070°07'714.3
2018-Apr-20 04:00N 42°45' W 069°57'1 1.4
2018-Apr-20 03:00N 42°45' W 069°55'0 0.7
2018-Apr-20 02:28N 42°46' W 069°56'0 0.6
2018-Apr-20 02:01N 42°46' W 069°56'0 0.6
2018-Apr-20 01:26N 42°46' W 069°56'0 0.4
2018-Apr-20 00:58N 42°46' W 069°56'0 0.4
2018-Apr-20 00:29N 42°46' W 069°57'0 0.4
2018-Apr-20 00:00N 42°46' W 069°57'0 0.4
2018-Apr-19 23:30N 42°46' W 069°57'0 0.5
2018-Apr-19 23:00N 42°46' W 069°58'0 0.4
2018-Apr-19 22:29N 42°46' W 069°58'1 1.3
2018-Apr-19 22:00N 42°46' W 069°59'  

Dump ship's entire track history